Time;durP1;ratioP1;P1;durP2;ratioP2;P2;SDS_P1;SDS_P2;PMS_P1;PMS_P2;Temp;Humidity;BMP_temperature;BMP_pressure;BME280_temperature;BME280_humidity;BME280_pressure;Samples;Min_cycle;Max_cycle;Signal;HPM_P1;HPM_P2
2023/12/20 00:00:39;;;;;;;2.20;1.50;;;6.20;87.60;;;7.95;60.86;97631.75;5033368;28;20041;-68
2023/12/20 00:03:07;;;;;;;1.80;1.50;;;6.20;87.90;;;7.98;60.69;97636.78;5033756;28;20047;-68
2023/12/20 00:05:35;;;;;;;1.70;1.30;;;6.20;87.60;;;7.99;60.92;97625.22;5032411;28;20505;-68
2023/12/20 00:08:05;;;;;;;2.80;2.03;;;6.20;88.10;;;7.95;61.07;97621.16;5025265;28;20045;-68
2023/12/20 00:10:32;;;;;;;2.57;1.63;;;6.20;88.90;;;7.96;61.15;97621.00;5033280;28;20085;-69
2023/12/20 00:13:00;;;;;;;2.83;1.57;;;6.20;88.60;;;7.92;61.34;97621.44;5033294;28;20152;-68
2023/12/20 00:15:28;;;;;;;2.80;1.90;;;6.20;89.00;;;7.94;61.26;97620.31;5033480;28;20056;-68
2023/12/20 00:17:55;;;;;;;2.93;1.60;;;6.20;89.90;;;7.95;61.37;97598.16;5033139;28;20056;-68
2023/12/20 00:20:23;;;;;;;5.00;1.93;;;6.10;90.60;;;7.96;61.68;97594.50;5033643;28;20041;-68
2023/12/20 00:22:51;;;;;;;4.30;1.60;;;6.10;90.80;;;7.97;61.58;97592.66;5033901;28;20052;-68
2023/12/20 00:25:18;;;;;;;2.40;1.67;;;6.10;91.10;;;7.99;61.70;97596.03;5033324;28;20057;-68
2023/12/20 00:27:46;;;;;;;3.20;1.87;;;6.20;92.10;;;8.01;61.71;97591.44;5032851;28;20254;-69
2023/12/20 00:30:14;;;;;;;2.03;1.63;;;6.20;92.20;;;8.04;61.91;97596.41;5033314;28;20053;-68
2023/12/20 00:32:48;;;;;;;2.40;1.73;;;6.20;93.10;;;8.06;61.62;97586.50;5033037;28;20067;-68
2023/12/20 00:35:16;;;;;;;2.58;1.60;;;6.20;92.50;;;8.06;61.80;97584.72;5031296;28;20049;-68
2023/12/20 00:37:44;;;;;;;3.10;1.73;;;6.20;92.90;;;8.08;61.85;97584.53;5032592;28;20037;-68
2023/12/20 00:40:12;;;;;;;2.97;1.50;;;6.20;93.10;;;8.08;61.85;97582.75;5033352;28;20041;-68
2023/12/20 00:42:39;;;;;;;2.37;1.70;;;6.20;93.20;;;8.10;61.99;97595.81;5031671;28;20037;-68
2023/12/20 00:45:08;;;;;;;3.47;2.17;;;6.20;93.10;;;8.10;61.99;97590.53;5032989;28;20405;-68
2023/12/20 00:47:35;;;;;;;3.23;1.97;;;6.30;93.50;;;8.10;62.10;97590.53;5032395;28;20037;-69
2023/12/20 00:50:03;;;;;;;2.80;1.50;;;6.20;93.60;;;8.09;62.04;97587.03;5032315;28;20049;-68
2023/12/20 00:52:31;;;;;;;1.40;1.30;;;6.20;94.10;;;8.10;62.22;97590.53;5031442;28;20049;-69
2023/12/20 00:54:59;;;;;;;2.17;1.67;;;6.20;94.00;;;8.11;62.25;97589.56;5032522;28;20045;-69
2023/12/20 00:57:27;;;;;;;2.90;1.93;;;6.30;93.80;;;8.12;62.24;97595.69;5032166;28;20661;-69
2023/12/20 00:59:54;;;;;;;3.03;1.93;;;6.30;94.20;;;8.11;62.05;97592.22;5031376;28;20061;-68
2023/12/20 01:02:22;;;;;;;3.50;1.90;;;6.20;94.40;;;8.11;62.17;97596.69;5032438;28;20049;-69
2023/12/20 01:04:49;;;;;;;2.50;1.80;;;6.20;94.70;;;8.06;62.41;97589.16;5029718;28;20033;-69
2023/12/20 01:07:17;;;;;;;4.50;2.60;;;6.20;95.20;;;8.06;62.34;97584.72;5031945;28;20041;-69
2023/12/20 01:09:45;;;;;;;5.33;2.73;;;6.20;95.40;;;8.09;62.59;97586.22;5032641;28;20049;-69
2023/12/20 01:12:12;;;;;;;4.80;2.50;;;6.20;95.40;;;8.09;62.71;97587.03;5031971;28;20052;-69
2023/12/20 01:14:40;;;;;;;4.57;2.50;;;6.20;95.60;;;8.11;62.57;97591.38;5032370;28;20428;-69
2023/12/20 01:17:08;;;;;;;4.13;2.53;;;6.20;95.70;;;8.10;62.65;97585.22;5031726;28;20045;-68
2023/12/20 01:19:35;;;;;;;2.93;2.13;;;6.20;95.60;;;8.07;62.75;97586.34;5032426;28;20228;-68
2023/12/20 01:22:03;;;;;;;8.70;5.33;;;6.20;95.70;;;8.07;62.54;97593.50;5031961;28;20046;-69
2023/12/20 01:24:31;;;;;;;5.10;3.20;;;6.10;96.80;;;8.08;62.65;97596.00;5032149;28;20044;-69
2023/12/20 01:26:59;;;;;;;10.13;7.80;;;6.20;96.80;;;8.07;62.80;97590.84;5031593;28;20050;-69
2023/12/20 01:29:26;;;;;;;8.33;6.17;;;6.20;96.60;;;8.00;63.06;97601.19;5032187;28;20042;-68
2023/12/20 01:31:54;;;;;;;8.87;6.50;;;6.10;97.90;;;8.00;63.20;97606.47;5029219;28;20048;-69
2023/12/20 01:34:22;;;;;;;5.37;3.97;;;6.10;98.10;;;8.01;62.99;97602.84;5031266;28;20041;-68
2023/12/20 01:36:49;;;;;;;5.13;3.07;;;6.10;98.00;;;7.98;63.31;97603.13;5031823;28;20044;-69
2023/12/20 01:39:17;;;;;;;3.50;2.50;;;6.10;98.30;;;7.94;63.81;97599.09;5031725;28;20038;-69
2023/12/20 01:41:54;;;;;;;3.10;2.07;;;6.10;98.90;;;7.91;63.95;97595.91;5030645;28;20046;-69
2023/12/20 01:44:22;;;;;;;3.60;2.17;;;6.10;99.50;;;7.94;64.08;97593.81;5031437;28;20034;-69
2023/12/20 01:46:50;;;;;;;2.87;2.00;;;6.20;99.60;;;7.80;64.99;97604.91;5031994;28;20409;-69
2023/12/20 01:49:17;;;;;;;3.70;2.67;;;6.20;99.90;;;7.76;65.33;97590.28;5031534;28;20037;-68
2023/12/20 01:51:46;;;;;;;3.13;2.40;;;6.10;99.90;;;7.77;65.29;97586.63;5013842;28;20049;-69
2023/12/20 01:54:13;;;;;;;3.10;2.30;;;6.00;99.90;;;7.80;65.46;97596.94;5023402;28;20053;-69
2023/12/20 01:56:42;;;;;;;3.13;2.07;;;6.10;99.90;;;7.50;66.24;97585.56;5030550;28;20042;-69
2023/12/20 01:59:09;;;;;;;2.17;1.60;;;6.00;99.90;;;7.39;67.11;97593.72;5029733;28;20512;-68
2023/12/20 02:01:37;;;;;;;1.60;1.23;;;5.90;99.90;;;7.20;68.60;97591.91;5030271;28;20044;-69
2023/12/20 02:04:05;;;;;;;0.77;0.67;;;5.80;99.90;;;7.12;69.03;97587.31;5013676;28;20042;-69
2023/12/20 02:06:34;;;;;;;1.60;1.10;;;5.90;99.90;;;7.23;68.26;97581.88;5031498;28;20041;-69
2023/12/20 02:09:01;;;;;;;0.47;0.47;;;5.90;99.90;;;7.26;68.88;97588.69;5031141;28;20497;-69
2023/12/20 02:11:29;;;;;;;0.40;0.40;;;5.90;99.90;;;7.38;68.44;97592.84;5030040;28;20052;-69
2023/12/20 02:13:57;;;;;;;0.63;0.43;;;6.00;99.90;;;7.24;68.67;97588.84;5031310;28;20045;-69
2023/12/20 02:16:24;;;;;;;0.50;0.33;;;6.00;99.90;;;7.28;68.56;97592.88;5031490;28;20497;-69
2023/12/20 02:18:52;;;;;;;2.00;0.50;;;6.00;99.90;;;7.13;69.17;97588.16;5031040;28;20373;-69
2023/12/20 02:21:25;;;;;;;0.60;0.23;;;6.00;99.90;;;7.27;68.88;97593.03;5029924;28;20517;-69
2023/12/20 02:23:53;;;;;;;0.50;0.35;;;6.00;99.90;;;7.08;69.12;97597.34;5031356;28;20045;-69
2023/12/20 02:26:20;;;;;;;1.00;0.43;;;5.90;99.90;;;7.05;69.50;97586.22;5031016;28;20053;-69
2023/12/20 02:28:49;;;;;;;0.30;0.30;;;5.90;99.90;;;7.06;69.04;97585.25;5030981;28;20468;-69
2023/12/20 02:31:16;;;;;;;0.63;0.40;;;5.90;99.90;;;7.07;69.67;97586.91;5031024;28;20424;-69
2023/12/20 02:33:44;;;;;;;0.63;0.40;;;5.80;99.90;;;6.98;69.43;97588.59;5031198;28;20052;-69
2023/12/20 02:36:12;;;;;;;0.57;0.50;;;5.80;99.90;;;6.86;69.88;97589.69;5030101;28;20056;-69
2023/12/20 02:38:39;;;;;;;0.73;0.40;;;5.80;99.90;;;6.76;70.03;97592.34;5030922;28;20041;-69
2023/12/20 02:41:07;;;;;;;0.47;0.47;;;5.80;99.90;;;6.93;69.75;97590.00;5030606;28;20038;-68
2023/12/20 02:43:34;;;;;;;0.57;0.47;;;5.80;99.90;;;6.85;70.19;97594.16;5030975;28;20041;-68
2023/12/20 02:46:02;;;;;;;0.63;0.63;;;5.70;99.90;;;6.84;69.96;97589.00;5030999;28;20416;-69
2023/12/20 02:48:29;;;;;;;0.40;0.40;;;5.70;99.90;;;6.93;69.80;97585.53;5030524;28;20040;-69
2023/12/20 02:50:57;;;;;;;1.10;0.60;;;5.70;99.90;;;6.87;69.51;97589.56;5030901;28;20049;-69
2023/12/20 02:53:25;;;;;;;1.40;0.60;;;5.70;99.90;;;6.90;69.07;97586.66;5029828;28;20042;-69
2023/12/20 02:55:52;;;;;;;1.00;0.60;;;5.70;99.90;;;6.83;70.16;97597.94;5029680;28;20050;-70
2023/12/20 02:58:20;;;;;;;0.40;0.40;;;5.60;99.90;;;6.75;69.83;97595.16;5023022;28;20045;-69
2023/12/20 03:00:48;;;;;;;1.00;0.70;;;5.60;99.90;;;6.74;69.83;97586.34;5030965;28;20045;-69
2023/12/20 03:03:15;;;;;;;0.70;0.53;;;5.50;99.90;;;6.70;69.51;97592.91;5030696;28;20492;-69
2023/12/20 03:05:44;;;;;;;0.43;0.40;;;5.50;99.90;;;6.66;69.99;97594.16;5029932;28;20041;-69
2023/12/20 03:08:12;;;;;;;0.60;0.60;;;5.50;99.90;;;6.66;69.45;97615.31;5034475;28;20424;-69
2023/12/20 03:10:40;;;;;;;0.60;0.43;;;5.50;99.90;;;6.44;70.28;97606.66;5034693;28;20057;-70
2023/12/20 03:13:07;;;;;;;0.60;0.60;;;5.40;99.90;;;6.58;69.86;97588.72;5034534;28;20060;-69
2023/12/20 03:15:35;;;;;;;0.53;0.40;;;5.40;99.90;;;6.70;69.12;97596.38;5034753;28;20045;-69
2023/12/20 03:18:03;;;;;;;0.40;0.40;;;5.50;99.90;;;6.59;69.48;97604.47;5033516;28;20060;-70
2023/12/20 03:20:33;;;;;;;0.40;0.40;;;5.50;99.90;;;6.67;69.26;97609.06;5033851;28;20508;-69
2023/12/20 03:23:01;;;;;;;0.50;0.40;;;5.50;99.90;;;6.60;69.72;97608.75;5033764;28;20053;-69
2023/12/20 03:25:29;;;;;;;0.37;0.37;;;5.40;99.90;;;6.58;70.14;97599.28;5034543;28;20041;-70
2023/12/20 03:27:57;;;;;;;0.50;0.40;;;5.40;99.90;;;6.37;71.09;97609.97;5033998;28;20109;-69
2023/12/20 03:30:24;;;;;;;1.27;1.07;;;5.30;99.90;;;6.54;70.62;97606.66;5034265;28;20064;-69
2023/12/20 03:32:52;;;;;;;0.90;0.80;;;5.30;99.90;;;6.46;70.78;97612.63;5034047;28;20052;-69
2023/12/20 03:35:20;;;;;;;0.93;0.80;;;5.30;99.90;;;6.29;71.70;97613.28;5033333;28;20037;-70
2023/12/20 03:37:47;;;;;;;0.93;0.80;;;5.20;99.90;;;6.41;71.05;97617.50;5034130;28;20037;-70
2023/12/20 03:40:15;;;;;;;1.00;0.70;;;5.20;99.90;;;6.50;70.59;97611.38;5034028;28;20512;-69
2023/12/20 03:42:43;;;;;;;0.77;0.73;;;5.30;99.90;;;6.60;70.27;97607.94;5033809;28;20041;-69
2023/12/20 03:45:10;;;;;;;0.97;0.70;;;5.40;99.90;;;6.46;70.62;97615.28;5034014;28;20512;-69
2023/12/20 03:47:38;;;;;;;0.60;0.50;;;5.30;99.90;;;6.25;71.71;97611.88;5033991;28;20034;-69
2023/12/20 03:50:06;;;;;;;0.60;0.50;;;5.20;99.90;;;6.33;71.06;97612.03;5034128;28;20052;-69
2023/12/20 03:52:34;;;;;;;1.50;0.90;;;5.20;99.90;;;6.42;70.98;97616.53;5033565;28;20045;-69
2023/12/20 03:55:01;;;;;;;0.47;0.43;;;5.20;99.90;;;6.40;71.32;97620.28;5033937;28;20056;-69
2023/12/20 03:57:29;;;;;;;1.17;1.03;;;5.20;99.90;;;6.39;71.04;97615.97;5033484;28;20049;-69
2023/12/20 03:59:57;;;;;;;0.97;0.60;;;5.20;99.90;;;6.36;70.48;97622.38;5033712;28;20416;-69
2023/12/20 04:02:24;;;;;;;0.37;0.37;;;5.20;99.90;;;6.42;70.93;97615.69;5033311;28;20417;-69
2023/12/20 04:04:53;;;;;;;0.83;0.70;;;5.20;99.90;;;6.55;70.49;97618.06;5034099;28;20040;-69
2023/12/20 04:07:20;;;;;;;0.93;0.80;;;5.20;99.90;;;6.56;69.97;97627.69;5033089;28;20544;-69
2023/12/20 04:09:48;;;;;;;1.43;0.60;;;5.20;99.90;;;6.55;69.70;97602.19;5033419;28;20049;-69
2023/12/20 04:12:16;;;;;;;0.60;0.57;;;5.30;99.90;;;6.39;70.84;97611.50;5033433;28;20056;-69
2023/12/20 04:14:43;;;;;;;1.10;0.70;;;5.20;99.90;;;6.48;70.25;97621.28;5033475;28;20057;-69
2023/12/20 04:17:11;;;;;;;0.60;0.60;;;5.20;99.90;;;6.43;70.76;97625.28;5033122;28;20057;-69
2023/12/20 04:19:39;;;;;;;0.67;0.57;;;5.20;99.90;;;6.42;70.66;97626.28;5015818;28;20493;-69
2023/12/20 04:22:07;;;;;;;0.77;0.60;;;5.20;99.90;;;6.64;70.11;97615.44;5032848;28;20053;-69
2023/12/20 04:24:35;;;;;;;0.50;0.40;;;5.30;99.90;;;6.64;69.93;97623.38;5032438;28;20052;-69
2023/12/20 04:27:03;;;;;;;0.33;0.33;;;5.40;99.90;;;6.65;69.75;97619.78;5032884;28;20116;-68
2023/12/20 04:29:30;;;;;;;1.03;0.60;;;5.40;99.90;;;6.57;69.77;97630.22;5033320;28;20040;-69
2023/12/20 04:31:58;;;;;;;0.93;0.70;;;5.30;99.90;;;6.75;69.31;97632.19;5033194;28;20049;-69
2023/12/20 04:34:26;;;;;;;0.40;0.40;;;5.40;99.90;;;6.78;69.66;97638.00;5029319;28;20037;-68
2023/12/20 04:36:54;;;;;;;1.17;0.80;;;5.40;99.90;;;6.67;69.81;97640.81;5031732;28;20501;-69
2023/12/20 04:39:21;;;;;;;0.97;0.60;;;5.40;99.90;;;6.45;70.33;97647.16;5031452;28;20056;-68
2023/12/20 04:41:50;;;;;;;0.70;0.60;;;5.30;99.90;;;6.56;69.91;97648.84;5032805;28;20410;-68
2023/12/20 04:44:17;;;;;;;1.03;1.00;;;5.30;99.90;;;6.54;70.45;97651.63;5032945;28;20052;-69
2023/12/20 04:46:45;;;;;;;0.60;0.57;;;5.30;99.90;;;6.58;70.27;97653.03;5033252;28;20037;-69
2023/12/20 04:49:12;;;;;;;0.60;0.57;;;5.30;99.90;;;6.54;70.13;97645.50;5033174;28;20038;-69
2023/12/20 04:51:40;;;;;;;1.27;0.80;;;5.30;99.90;;;6.53;71.00;97654.41;5032551;28;20041;-69
2023/12/20 04:54:09;;;;;;;0.60;0.60;;;5.30;99.90;;;6.41;70.61;97654.50;5032817;28;20488;-69
2023/12/20 04:56:36;;;;;;;1.00;0.90;;;5.30;99.90;;;6.38;71.14;97659.22;5033565;28;20052;-69
2023/12/20 04:59:04;;;;;;;0.70;0.70;;;5.20;99.90;;;6.43;71.46;97663.16;5032519;28;20049;-50
2023/12/20 05:01:32;;;;;;;0.90;0.80;;;5.20;99.90;;;6.38;71.17;97669.81;5023608;28;20052;-50
2023/12/20 05:03:59;;;;;;;1.00;0.90;;;5.20;99.90;;;6.42;70.99;97664.13;5032216;28;20269;-51
2023/12/20 05:06:27;;;;;;;1.20;1.00;;;5.20;99.90;;;6.39;71.69;97667.03;5032295;28;20041;-50
2023/12/20 05:08:55;;;;;;;1.37;0.90;;;5.20;99.90;;;6.55;71.41;97674.44;5032417;28;20361;-52
2023/12/20 05:11:22;;;;;;;1.13;1.00;;;5.30;99.90;;;6.54;71.87;97664.84;5032684;28;20053;-52
2023/12/20 05:13:50;;;;;;;1.50;1.00;;;5.30;99.90;;;6.46;71.68;97665.53;5032564;28;20044;-52
2023/12/20 05:16:17;;;;;;;1.20;1.10;;;5.30;99.90;;;6.61;71.29;97667.78;5031894;28;20045;-52
2023/12/20 05:18:52;;;;;;;1.30;1.07;;;5.30;99.90;;;6.57;71.59;97661.97;5026287;28;20604;-52
2023/12/20 05:21:20;;;;;;;2.15;1.15;;;5.40;99.90;;;6.48;72.17;97679.47;5031841;28;20493;-53
2023/12/20 05:23:47;;;;;;;1.57;1.27;;;5.30;99.90;;;6.66;71.99;97694.69;5032381;28;20044;-49
2023/12/20 05:26:15;;;;;;;2.27;1.30;;;5.40;99.90;;;6.59;71.68;97677.66;5031061;28;20052;-50
2023/12/20 05:28:42;;;;;;;1.47;1.13;;;5.40;99.90;;;6.53;71.65;97688.78;5031538;28;20037;-53
2023/12/20 05:31:11;;;;;;;2.20;1.43;;;5.40;99.90;;;6.44;72.63;97690.44;5031999;28;20038;-50
2023/12/20 05:33:38;;;;;;;1.77;1.30;;;5.30;99.90;;;6.62;72.09;97696.75;5030674;28;20049;-48
2023/12/20 05:36:11;;;;;;;2.70;1.73;;;5.40;99.90;;;6.49;72.08;97697.00;5031327;28;20045;-51
2023/12/20 05:38:38;;;;;;;1.50;1.17;;;5.40;99.90;;;6.52;72.35;97703.00;5023972;28;20046;-51
2023/12/20 05:41:06;;;;;;;2.63;1.40;;;5.40;99.90;;;6.52;72.86;97706.47;5032494;28;20065;-51
2023/12/20 05:43:34;;;;;;;2.57;1.20;;;5.30;99.90;;;6.61;72.81;97702.16;5031687;28;20413;-50
2023/12/20 05:46:01;;;;;;;1.53;1.17;;;5.40;99.90;;;6.64;72.50;97700.09;5029993;28;20046;-48
2023/12/20 05:48:29;;;;;;;1.87;1.20;;;5.40;99.90;;;6.59;72.61;97704.13;5030157;28;20053;-48
2023/12/20 05:50:57;;;;;;;2.23;1.30;;;5.40;99.90;;;6.68;72.38;97727.97;5030586;28;20037;-48
2023/12/20 05:53:25;;;;;;;1.17;1.00;;;5.40;99.90;;;6.77;72.15;97728.97;5031560;28;20052;-51
2023/12/20 05:55:53;;;;;;;1.73;1.17;;;5.50;99.90;;;6.75;71.63;97724.78;5031833;28;20042;-53
2023/12/20 05:58:20;;;;;;;1.43;1.27;;;5.50;99.90;;;6.65;72.56;97727.38;5031225;28;20528;-52
2023/12/20 06:00:48;;;;;;;2.37;1.37;;;5.40;99.90;;;6.54;72.83;97738.91;5031524;28;20061;-48
2023/12/20 06:03:16;;;;;;;1.27;1.00;;;5.40;99.90;;;6.53;73.29;97739.88;5031321;28;20045;-54
2023/12/20 06:05:44;;;;;;;1.50;1.10;;;5.40;99.90;;;6.52;72.49;97745.31;5030568;28;20045;-55
2023/12/20 06:08:12;;;;;;;1.27;1.17;;;5.40;99.90;;;6.51;73.58;97747.09;5030792;28;20049;-51
2023/12/20 06:10:40;;;;;;;2.13;1.53;;;5.40;99.90;;;6.55;73.38;97747.69;5030410;28;20046;-50
2023/12/20 06:13:07;;;;;;;3.47;1.60;;;5.40;99.90;;;6.68;72.47;97741.19;5031471;28;20405;-50
2023/12/20 06:15:35;;;;;;;1.40;1.23;;;5.40;99.90;;;6.53;72.75;97747.81;5031538;28;20428;-50
2023/12/20 06:18:03;;;;;;;4.17;1.73;;;5.40;99.90;;;6.64;72.45;97755.66;5031284;28;20517;-52
2023/12/20 06:20:32;;;;;;;2.27;1.80;;;5.50;99.90;;;6.53;72.71;97754.91;5031001;28;20079;-51
2023/12/20 06:23:00;;;;;;;2.87;1.83;;;5.40;99.90;;;6.65;73.41;97760.00;5030103;28;20049;-48
2023/12/20 06:25:28;;;;;;;2.70;1.73;;;5.50;99.90;;;6.69;72.50;97769.34;5030222;28;20481;-51
2023/12/20 06:27:55;;;;;;;2.47;1.97;;;5.50;99.90;;;6.70;72.65;97763.06;5030902;28;20042;-52
2023/12/20 06:30:24;;;;;;;3.33;2.00;;;5.50;99.90;;;6.63;72.82;97755.78;5030427;28;20053;-51
2023/12/20 06:32:52;;;;;;;2.67;1.80;;;5.40;99.90;;;6.68;72.29;97754.41;5030994;28;20053;-49
2023/12/20 06:35:20;;;;;;;2.07;1.73;;;5.50;99.90;;;6.68;72.55;97758.88;5030594;28;20413;-51
2023/12/20 06:37:48;;;;;;;2.53;2.07;;;5.50;99.90;;;6.69;72.29;97769.34;5031059;28;20037;-52
2023/12/20 06:40:16;;;;;;;3.63;2.20;;;5.40;99.90;;;6.78;72.28;97766.84;5031092;28;20050;-52
2023/12/20 06:42:46;;;;;;;2.57;1.63;;;5.50;99.90;;;6.59;72.84;97776.41;5033276;28;20048;-52
2023/12/20 06:45:31;;;;;;;3.97;2.40;;;5.40;99.90;;;6.59;73.32;97764.97;5035320;28;20038;-48
2023/12/20 06:47:59;;;;;;;3.77;3.27;;;5.40;99.90;;;6.61;72.57;97773.59;5035242;28;20072;-50
2023/12/20 06:50:27;;;;;;;3.67;2.50;;;5.40;99.90;;;6.56;73.75;97773.19;5035252;28;20049;-50
2023/12/20 06:52:55;;;;;;;4.93;3.30;;;5.40;99.90;;;6.55;73.42;97780.25;5033597;28;20524;-50
2023/12/20 06:55:22;;;;;;;4.83;3.70;;;5.40;99.90;;;6.49;73.95;97778.16;5035101;28;20049;-50
2023/12/20 06:57:50;;;;;;;4.90;3.27;;;5.30;99.90;;;6.44;73.51;97788.31;5035052;28;20037;-49
2023/12/20 07:00:19;;;;;;;5.20;3.70;;;5.30;99.90;;;6.49;73.96;97786.09;5034998;28;20501;-47
2023/12/20 07:02:47;;;;;;;5.37;3.83;;;5.30;99.90;;;6.43;73.62;97789.25;5034550;28;20045;-48
2023/12/20 07:05:19;;;;;;;4.73;3.80;;;5.30;99.90;;;6.29;74.01;97796.56;5035010;28;20049;-50
2023/12/20 07:07:47;;;;;;;4.40;3.27;;;5.30;99.90;;;6.37;74.03;97793.25;5026567;28;20041;-53
2023/12/20 07:10:16;;;;;;;3.63;3.03;;;5.30;99.90;;;6.35;74.42;97804.94;5034708;28;20500;-51
2023/12/20 07:12:43;;;;;;;4.50;2.67;;;5.30;99.90;;;6.40;73.35;97811.53;5034622;28;20337;-52
2023/12/20 07:15:12;;;;;;;3.53;2.70;;;5.30;99.90;;;6.49;73.19;97810.75;5034972;28;20050;-48
2023/12/20 07:17:39;;;;;;;3.83;3.00;;;5.40;99.90;;;6.45;73.47;97819.06;5033631;28;20037;-52
2023/12/20 07:20:10;;;;;;;3.30;2.47;;;5.30;99.90;;;6.40;72.50;97821.28;5034760;28;20049;-52
2023/12/20 07:22:38;;;;;;;3.20;2.70;;;5.20;99.90;;;6.29;73.59;97841.50;5031315;28;20045;-53
2023/12/20 07:25:10;;;;;;;3.83;2.70;;;5.20;99.90;;;6.27;72.86;97835.50;5033193;28;20501;-51
2023/12/20 07:27:38;;;;;;;4.23;2.90;;;5.20;99.90;;;6.41;73.09;97831.69;5032639;28;22303;-51
2023/12/20 07:30:09;;;;;;;3.90;2.77;;;5.20;99.90;;;6.45;71.81;97827.81;5033325;28;20041;-52
2023/12/20 07:32:37;;;;;;;4.17;2.67;;;5.30;99.90;;;6.26;72.59;97823.28;5032360;28;20045;-53
2023/12/20 07:35:05;;;;;;;4.47;3.50;;;5.20;99.90;;;6.38;72.26;97821.41;5030986;28;20049;-48
2023/12/20 07:37:33;;;;;;;3.37;2.30;;;5.20;99.90;;;6.37;71.31;97826.81;5031459;28;20042;-48
2023/12/20 07:40:01;;;;;;;4.43;3.07;;;5.20;99.90;;;6.37;71.93;97834.75;5031730;28;20045;-52
2023/12/20 07:42:28;;;;;;;4.20;2.87;;;5.20;99.90;;;6.41;71.15;97836.16;5033209;28;20489;-51
2023/12/20 07:44:56;;;;;;;3.20;2.90;;;5.10;99.90;;;6.44;71.00;97842.03;5033896;28;20053;-52
2023/12/20 07:47:25;;;;;;;5.80;3.30;;;5.10;99.90;;;6.38;70.45;97824.03;5033737;28;20053;-52
2023/12/20 07:49:53;;;;;;;4.17;2.70;;;5.10;99.90;;;6.36;70.76;97831.25;5034127;28;20049;-51
2023/12/20 07:52:22;;;;;;;3.93;2.80;;;5.10;99.90;;;6.21;71.29;97827.28;5032107;28;20421;-49
2023/12/20 07:54:50;;;;;;;4.03;3.03;;;5.00;99.90;;;6.23;70.86;97831.47;5026298;28;20108;-51
2023/12/20 07:57:18;;;;;;;4.00;2.97;;;5.00;99.90;;;6.20;70.81;97847.56;5033784;28;20412;-49
2023/12/20 07:59:45;;;;;;;2.90;2.50;;;4.90;99.90;;;6.18;70.30;97838.91;5033883;28;20501;-52
2023/12/20 08:02:13;;;;;;;3.93;2.73;;;4.90;99.90;;;6.01;70.83;97856.22;5033700;28;20053;-50
2023/12/20 08:04:40;;;;;;;5.20;3.00;;;4.80;99.90;;;6.08;70.85;97849.44;5033044;28;20041;-51
2023/12/20 08:07:08;;;;;;;6.90;3.27;;;4.80;99.90;;;6.06;70.07;97858.47;5033303;28;20045;-51
2023/12/20 08:09:36;;;;;;;4.23;2.60;;;4.80;99.90;;;6.01;70.51;97868.56;5033216;28;20041;-52
2023/12/20 08:12:04;;;;;;;3.57;2.70;;;4.80;99.90;;;6.04;70.57;97865.69;5033534;28;20045;-49
2023/12/20 08:14:32;;;;;;;6.23;5.63;;;4.80;99.90;;;6.06;70.77;97869.88;5034003;28;20053;-50
2023/12/20 08:17:00;;;;;;;3.83;3.00;;;4.80;99.90;;;6.04;70.18;97889.47;5033233;28;20048;-49
2023/12/20 08:19:27;;;;;;;5.43;3.57;;;4.80;99.90;;;6.15;70.04;97868.28;5030887;28;20056;-50
2023/12/20 08:21:55;;;;;;;4.13;3.20;;;4.80;99.90;;;5.95;70.46;97875.19;5033562;28;20041;-52
2023/12/20 08:24:22;;;;;;;4.37;2.87;;;4.80;99.90;;;6.01;70.04;97871.22;5033560;28;20052;-51
2023/12/20 08:26:50;;;;;;;4.23;2.83;;;4.80;99.90;;;6.07;70.48;97873.38;5033439;28;20045;-47
2023/12/20 08:29:18;;;;;;;3.70;3.00;;;4.90;99.90;;;5.98;70.16;97859.09;5033219;28;20052;-49
2023/12/20 08:31:46;;;;;;;4.87;2.87;;;4.80;99.90;;;6.06;70.13;97871.69;5033208;28;20033;-48
2023/12/20 08:34:14;;;;;;;6.10;3.00;;;4.80;99.90;;;6.06;70.12;97863.75;5032030;28;20493;-54
2023/12/20 08:36:42;;;;;;;5.60;3.37;;;4.80;99.90;;;6.19;69.38;97869.69;5033047;28;20049;-51
2023/12/20 08:39:10;;;;;;;4.47;3.27;;;4.80;99.90;;;6.03;70.13;97882.50;5032886;28;20049;-48
2023/12/20 08:41:38;;;;;;;5.67;3.30;;;4.80;99.90;;;6.15;69.86;97880.66;5032272;28;20525;-51
2023/12/20 08:44:05;;;;;;;4.60;3.20;;;4.80;99.90;;;6.22;69.42;97877.38;5031868;28;20052;-53
2023/12/20 08:46:33;;;;;;;6.63;3.17;;;4.90;99.90;;;6.23;69.01;97876.41;5033198;28;20068;-52
2023/12/20 08:49:02;;;;;;;4.47;3.30;;;4.90;99.90;;;6.13;69.22;97877.28;5032507;28;20053;-52
2023/12/20 08:51:30;;;;;;;4.30;3.20;;;4.90;99.90;;;6.25;69.58;97871.00;5032829;28;20528;-50
2023/12/20 08:53:57;;;;;;;4.17;3.17;;;4.90;99.90;;;6.26;69.36;97888.50;5033098;28;20405;-50
2023/12/20 08:56:25;;;;;;;3.57;2.70;;;4.90;99.90;;;6.24;68.83;97874.59;5032805;28;20412;-52
2023/12/20 08:58:53;;;;;;;5.20;2.80;;;5.00;99.90;;;6.22;68.21;97885.31;5031444;28;20045;-52
2023/12/20 09:01:20;;;;;;;3.33;2.57;;;5.00;98.80;;;6.18;68.76;97883.88;5032992;28;20045;-52
2023/12/20 09:03:48;;;;;;;4.77;2.97;;;4.90;99.20;;;6.18;68.98;97883.88;5031709;28;20203;-51
2023/12/20 09:06:16;;;;;;;3.70;2.47;;;4.90;99.20;;;6.10;67.63;97887.16;5032849;28;20045;-51
2023/12/20 09:08:43;;;;;;;5.03;2.80;;;4.90;96.80;;;6.20;68.59;97873.16;5032405;28;20417;-48
2023/12/20 09:11:11;;;;;;;6.60;2.97;;;5.00;98.40;;;6.39;67.78;97875.94;5032337;28;20049;-52
2023/12/20 09:13:39;;;;;;;2.63;2.20;;;5.10;99.00;;;6.38;67.67;97868.13;5031402;28;20053;-48
2023/12/20 09:16:06;;;;;;;2.80;1.80;;;5.10;97.70;;;6.27;67.43;97871.69;5032520;28;20041;-52
2023/12/20 09:18:34;;;;;;;3.93;2.90;;;5.10;95.60;;;6.37;67.48;97875.25;5030607;28;20045;-49
2023/12/20 09:21:02;;;;;;;3.43;1.80;;;5.10;95.40;;;6.30;66.63;97868.78;5032225;28;20416;-48
2023/12/20 09:23:30;;;;;;;3.50;2.83;;;5.10;93.60;;;6.26;66.11;97867.38;5032335;28;20398;-47
2023/12/20 09:25:57;;;;;;;5.67;2.40;;;5.10;93.70;;;6.28;66.21;97873.38;5024128;28;20045;-47
2023/12/20 09:28:25;;;;;;;4.87;1.47;;;5.10;93.80;;;6.37;66.07;97869.13;5032230;28;20540;-47
2023/12/20 09:30:53;;;;;;;4.70;2.07;;;5.10;92.00;;;6.29;65.20;97869.75;5032241;28;20029;-49
2023/12/20 09:33:21;;;;;;;3.27;1.30;;;5.10;91.50;;;6.37;65.31;97874.41;5032074;28;20050;-48
2023/12/20 09:35:48;;;;;;;2.17;1.70;;;5.10;90.80;;;6.29;65.21;97875.06;5031988;28;20412;-50
2023/12/20 09:38:17;;;;;;;5.57;1.67;;;5.10;91.30;;;6.26;64.81;97872.66;5031669;28;20056;-50
2023/12/20 09:40:45;;;;;;;3.70;1.30;;;5.10;91.00;;;6.13;64.95;97882.56;5030493;28;20512;-51
2023/12/20 09:43:17;;;;;;;3.43;1.57;;;5.00;88.90;;;6.27;65.27;97883.09;5031804;28;20049;-49
2023/12/20 09:45:47;;;;;;;7.80;1.73;;;5.10;90.30;;;6.33;64.87;97873.81;5031513;28;20045;-51
2023/12/20 09:48:19;;;;;;;4.90;1.80;;;5.10;89.40;;;6.20;64.35;97871.34;5031756;28;20056;-48
2023/12/20 09:50:47;;;;;;;4.40;2.00;;;5.10;87.90;;;6.28;64.37;97887.44;5031838;28;20046;-50
2023/12/20 09:53:23;;;;;;;4.28;1.60;;;5.10;90.10;;;6.29;64.72;97891.75;5030749;28;20046;-47
2023/12/20 09:55:52;;;;;;;7.83;2.13;;;5.10;89.10;;;6.36;64.86;97889.44;5031735;28;20436;-51
2023/12/20 09:58:20;;;;;;;4.17;2.23;;;5.10;89.80;;;6.22;64.74;97884.44;5030194;28;20056;-49
2023/12/20 10:00:48;;;;;;;6.80;1.83;;;5.20;88.40;;;6.34;64.41;97891.38;5031687;28;20049;-49
2023/12/20 10:03:16;;;;;;;7.13;2.17;;;5.20;88.90;;;6.42;64.75;97885.44;5030433;28;20045;-51
2023/12/20 10:05:44;;;;;;;3.80;2.20;;;5.20;89.30;;;6.44;64.45;97884.34;5030148;28;20048;-48
2023/12/20 10:08:12;;;;;;;4.93;2.40;;;5.20;89.00;;;6.43;63.37;97885.28;5031103;28;20045;-50
2023/12/20 10:10:40;;;;;;;3.47;1.73;;;5.20;87.80;;;6.32;64.23;97882.75;5031237;28;20049;-48
2023/12/20 10:13:15;;;;;;;3.83;2.03;;;5.20;88.40;;;6.49;63.42;97891.88;5031515;28;20048;-50
2023/12/20 10:15:43;;;;;;;6.60;2.27;;;5.30;88.50;;;6.39;63.95;97880.41;5030959;28;20421;-51
2023/12/20 10:18:12;;;;;;;7.37;1.90;;;5.30;87.40;;;6.26;64.27;97894.66;5030026;28;20049;-51
2023/12/20 10:20:42;;;;;;;3.23;1.80;;;5.20;87.40;;;6.13;64.22;97887.84;5031305;28;20045;-51
2023/12/20 10:23:11;;;;;;;3.00;1.60;;;5.10;87.50;;;6.03;64.30;97879.84;5031266;28;20052;-49
2023/12/20 10:25:39;;;;;;;2.93;2.03;;;5.10;87.10;;;6.24;63.85;97869.31;5031242;28;20049;-49
2023/12/20 10:28:14;;;;;;;3.67;2.07;;;5.20;87.30;;;6.25;63.48;97878.94;5031241;28;20046;-49
2023/12/20 10:30:42;;;;;;;4.70;1.73;;;5.20;83.20;;;6.31;62.83;97859.91;5031345;28;20413;-50
2023/12/20 10:33:10;;;;;;;6.20;2.00;;;5.30;84.10;;;6.32;63.35;97866.88;5030846;28;20053;-52
2023/12/20 10:35:40;;;;;;;9.10;2.00;;;5.30;84.60;;;6.47;62.20;97857.63;5027764;28;20052;-53